Terminal Aerodrome Forecast
Issued by NWS

Home | Current Version | Previous Version | Text Only | Print | Product List | Glossary Off
Versions: 1 2 3 4 5 6 7 8 9 10 11 12 13 14 15 16 17 18

000
FTUS43 KICT 251604 AAA
TAFHUT
TAF AMD
KHUT 251604Z 2516/2612 05010KT P6SM SCT017 BKN070
     FM251800 05016G23KT P6SM VCTS OVC050CB
     FM252100 03024G32KT P6SM VCTS OVC040CB
     FM260000 01024G32KT 6SM -RA SCT015 OVC025
     FM260600 36015G21KT P6SM SCT015 BKN100=

USA.gov is the U.S. government's official web portal to all federal, state and local government web resources and services.